Terminal Aerodrome Forecast
Issued by NWS

Home | Current Version | Previous Version | Text Only | Print | Product List | Glossary On
Versions: 1 2 3 4 5 6 7 8 9 10 11 12 13 14 15 16 17 18 19 20 21 22 23 24 25 26 27 28 29 30 31 32 33 34 35
000
FTUS43 KLOT 020500
TAFMDW
TAF
KMDW 020540Z 0206/0306 15007KT P6SM VCSH SCT060 BKN090
     FM020800 16006KT 6SM -SHRA BKN060 OVC090
     FM021100 17009KT P6SM SCT020 BKN035 OVC090
     FM022000 18007KT P6SM VCTS SCT025CB BKN040
      TEMPO 0222/0224 TSRA BKN025CB
     FM030400 20012KT 4SM SHRA BR SCT007 BKN012 OVC030=

USA.gov is the U.S. government's official web portal to all federal, state and local government web resources and services.